KJLN

Joplin Regional Airport

Joplin, Missouri, USA
METAR KJLN 150053Z 19007KT 10SM OVC017 24/21 A2991 RMK AO2 SLP117 T02440206
Observed Flight Rules
Aug-15 @ 00:53 UTC (14 minutes ago) Marginal Visual Flight Rules
Wind Visibility Clouds
190° at 7 knots 10 miles
  • Overcast at 1,700' AGL
Temperatures Readings
Current 24°C / 75°F
Dewpoint 21°C / 70°F
Humidity 83%
Altimeter 29.91" Hg
Pressure 1011.7 hPa
Elevation 299
METAR KJLN 150053Z 19007KT 10SM OVC017 24/21 A2991 RMK AO2 SLP117 T02440206
Observed Flight Rules
Aug-15 @ 00:53 UTC
(14 minutes ago)
MVFR
Wind Visibility
190° at 7 knots 10 miles
Clouds
  • Overcast at 1,700' AGL
Temperature Dewpoint
24°C / 75°F 21°C / 70°F
Humidity Altimeter Pressure
83% 29.91" Hg 1011.7 hPa